sensor_id;sensor_type;location;lat;lon;timestamp;temperature;humidity
4433;DHT22;2229;48.708;9.706;2023-05-29T00:01:26;14.80;76.50
4433;DHT22;2229;48.708;9.706;2023-05-29T00:03:53;14.80;76.50
4433;DHT22;2229;48.708;9.706;2023-05-29T00:06:21;14.80;77.40
4433;DHT22;2229;48.708;9.706;2023-05-29T00:08:49;14.70;76.70
4433;DHT22;2229;48.708;9.706;2023-05-29T00:11:16;14.70;76.70
4433;DHT22;2229;48.708;9.706;2023-05-29T00:13:44;14.60;76.50
4433;DHT22;2229;48.708;9.706;2023-05-29T00:16:11;14.60;76.70
4433;DHT22;2229;48.708;9.706;2023-05-29T00:18:38;14.50;77.00
4433;DHT22;2229;48.708;9.706;2023-05-29T00:21:11;14.50;77.20
4433;DHT22;2229;48.708;9.706;2023-05-29T00:23:40;14.40;77.30
4433;DHT22;2229;48.708;9.706;2023-05-29T00:26:07;14.40;77.50
4433;DHT22;2229;48.708;9.706;2023-05-29T00:28:37;14.30;77.50
4433;DHT22;2229;48.708;9.706;2023-05-29T00:31:04;14.30;77.60
4433;DHT22;2229;48.708;9.706;2023-05-29T00:33:32;14.20;77.70
4433;DHT22;2229;48.708;9.706;2023-05-29T00:35:59;14.10;77.80
4433;DHT22;2229;48.708;9.706;2023-05-29T00:38:26;14.00;78.00
4433;DHT22;2229;48.708;9.706;2023-05-29T00:40:55;14.00;78.20
4433;DHT22;2229;48.708;9.706;2023-05-29T00:43:22;14.00;78.50
4433;DHT22;2229;48.708;9.706;2023-05-29T00:45:49;13.90;78.90
4433;DHT22;2229;48.708;9.706;2023-05-29T00:48:17;13.80;79.20
4433;DHT22;2229;48.708;9.706;2023-05-29T00:50:44;13.80;79.40
4433;DHT22;2229;48.708;9.706;2023-05-29T00:53:12;13.80;79.60
4433;DHT22;2229;48.708;9.706;2023-05-29T00:55:40;13.70;79.60
4433;DHT22;2229;48.708;9.706;2023-05-29T00:58:09;13.70;79.70
4433;DHT22;2229;48.708;9.706;2023-05-29T01:00:36;13.70;79.70
4433;DHT22;2229;48.708;9.706;2023-05-29T01:03:04;13.70;79.90
4433;DHT22;2229;48.708;9.706;2023-05-29T01:05:34;13.60;79.80
4433;DHT22;2229;48.708;9.706;2023-05-29T01:08:02;13.60;80.00
4433;DHT22;2229;48.708;9.706;2023-05-29T01:10:29;13.60;80.20
4433;DHT22;2229;48.708;9.706;2023-05-29T01:13:01;13.60;80.40
4433;DHT22;2229;48.708;9.706;2023-05-29T01:15:40;13.50;80.30
4433;DHT22;2229;48.708;9.706;2023-05-29T01:18:19;13.50;80.30
4433;DHT22;2229;48.708;9.706;2023-05-29T01:20:54;13.40;80.10
4433;DHT22;2229;48.708;9.706;2023-05-29T01:23:52;13.40;80.20
4433;DHT22;2229;48.708;9.706;2023-05-29T01:26:45;13.30;80.30
4433;DHT22;2229;48.708;9.706;2023-05-29T01:29:14;13.30;80.50
4433;DHT22;2229;48.708;9.706;2023-05-29T01:31:44;13.20;80.50
4433;DHT22;2229;48.708;9.706;2023-05-29T01:34:13;13.20;80.70
4433;DHT22;2229;48.708;9.706;2023-05-29T01:36:43;13.20;80.80
4433;DHT22;2229;48.708;9.706;2023-05-29T01:39:12;13.20;80.90
4433;DHT22;2229;48.708;9.706;2023-05-29T01:41:42;13.10;81.00
4433;DHT22;2229;48.708;9.706;2023-05-29T01:44:10;13.20;81.40
4433;DHT22;2229;48.708;9.706;2023-05-29T01:46:39;13.10;81.50
4433;DHT22;2229;48.708;9.706;2023-05-29T01:49:08;13.10;81.50
4433;DHT22;2229;48.708;9.706;2023-05-29T01:51:35;13.10;81.40
4433;DHT22;2229;48.708;9.706;2023-05-29T01:54:04;13.20;81.40
4433;DHT22;2229;48.708;9.706;2023-05-29T01:56:31;13.20;81.20
4433;DHT22;2229;48.708;9.706;2023-05-29T01:59:01;13.10;81.30
4433;DHT22;2229;48.708;9.706;2023-05-29T02:01:31;13.10;81.30
4433;DHT22;2229;48.708;9.706;2023-05-29T02:03:58;13.10;81.30
4433;DHT22;2229;48.708;9.706;2023-05-29T02:06:25;13.00;81.30
4433;DHT22;2229;48.708;9.706;2023-05-29T02:08:53;13.00;81.40
4433;DHT22;2229;48.708;9.706;2023-05-29T02:11:20;12.90;81.40
4433;DHT22;2229;48.708;9.706;2023-05-29T02:13:47;12.80;81.40
4433;DHT22;2229;48.708;9.706;2023-05-29T02:16:16;12.80;81.60
4433;DHT22;2229;48.708;9.706;2023-05-29T02:18:46;12.70;81.60
4433;DHT22;2229;48.708;9.706;2023-05-29T02:21:13;12.70;81.80
4433;DHT22;2229;48.708;9.706;2023-05-29T02:23:41;12.70;82.00
4433;DHT22;2229;48.708;9.706;2023-05-29T02:26:09;12.60;82.10
4433;DHT22;2229;48.708;9.706;2023-05-29T02:28:37;12.60;82.20
4433;DHT22;2229;48.708;9.706;2023-05-29T02:31:05;12.60;82.40
4433;DHT22;2229;48.708;9.706;2023-05-29T02:33:33;12.60;82.50
4433;DHT22;2229;48.708;9.706;2023-05-29T02:36:01;12.50;82.60
4433;DHT22;2229;48.708;9.706;2023-05-29T02:38:28;12.50;82.70
4433;DHT22;2229;48.708;9.706;2023-05-29T02:40:55;12.50;83.00
4433;DHT22;2229;48.708;9.706;2023-05-29T02:43:25;12.50;83.30
4433;DHT22;2229;48.708;9.706;2023-05-29T02:45:54;12.50;83.60
4433;DHT22;2229;48.708;9.706;2023-05-29T02:48:21;12.40;83.70
4433;DHT22;2229;48.708;9.706;2023-05-29T02:50:50;12.40;83.80
4433;DHT22;2229;48.708;9.706;2023-05-29T02:53:17;12.40;83.90
4433;DHT22;2229;48.708;9.706;2023-05-29T02:55:44;12.40;83.80
4433;DHT22;2229;48.708;9.706;2023-05-29T02:58:12;12.30;83.50
4433;DHT22;2229;48.708;9.706;2023-05-29T03:00:42;12.30;83.40
4433;DHT22;2229;48.708;9.706;2023-05-29T03:03:09;12.20;83.20
4433;DHT22;2229;48.708;9.706;2023-05-29T03:05:38;12.20;83.30
4433;DHT22;2229;48.708;9.706;2023-05-29T03:08:07;12.10;83.40
4433;DHT22;2229;48.708;9.706;2023-05-29T03:10:36;12.10;83.60
4433;DHT22;2229;48.708;9.706;2023-05-29T03:13:03;12.10;83.80
4433;DHT22;2229;48.708;9.706;2023-05-29T03:15:31;12.00;83.90
4433;DHT22;2229;48.708;9.706;2023-05-29T03:17:58;12.00;84.00
4433;DHT22;2229;48.708;9.706;2023-05-29T03:20:29;11.90;84.70
4433;DHT22;2229;48.708;9.706;2023-05-29T03:22:58;11.90;84.20
4433;DHT22;2229;48.708;9.706;2023-05-29T03:25:28;11.90;84.30
4433;DHT22;2229;48.708;9.706;2023-05-29T03:27:55;11.90;84.50
4433;DHT22;2229;48.708;9.706;2023-05-29T03:30:23;11.80;84.40
4433;DHT22;2229;48.708;9.706;2023-05-29T03:32:52;11.80;84.60
4433;DHT22;2229;48.708;9.706;2023-05-29T03:35:27;11.80;84.70
4433;DHT22;2229;48.708;9.706;2023-05-29T03:37:54;11.80;84.90
4433;DHT22;2229;48.708;9.706;2023-05-29T03:40:21;11.80;85.10
4433;DHT22;2229;48.708;9.706;2023-05-29T03:42:49;11.80;85.30
4433;DHT22;2229;48.708;9.706;2023-05-29T03:45:17;11.80;85.40
4433;DHT22;2229;48.708;9.706;2023-05-29T03:47:44;11.80;85.50
4433;DHT22;2229;48.708;9.706;2023-05-29T03:50:12;11.80;85.60
4433;DHT22;2229;48.708;9.706;2023-05-29T03:52:42;11.80;85.60
4433;DHT22;2229;48.708;9.706;2023-05-29T03:55:10;11.80;85.60
4433;DHT22;2229;48.708;9.706;2023-05-29T03:57:41;11.90;85.70
4433;DHT22;2229;48.708;9.706;2023-05-29T04:00:11;11.90;85.80
4433;DHT22;2229;48.708;9.706;2023-05-29T04:02:41;11.90;85.90
4433;DHT22;2229;48.708;9.706;2023-05-29T04:05:08;12.00;86.80
4433;DHT22;2229;48.708;9.706;2023-05-29T04:07:36;12.00;86.10
4433;DHT22;2229;48.708;9.706;2023-05-29T04:10:05;12.10;86.20
4433;DHT22;2229;48.708;9.706;2023-05-29T04:12:34;12.10;86.20
4433;DHT22;2229;48.708;9.706;2023-05-29T04:15:01;12.20;86.20
4433;DHT22;2229;48.708;9.706;2023-05-29T04:17:30;12.20;86.20
4433;DHT22;2229;48.708;9.706;2023-05-29T04:19:57;12.30;86.20
4433;DHT22;2229;48.708;9.706;2023-05-29T04:22:25;12.30;86.20
4433;DHT22;2229;48.708;9.706;2023-05-29T04:24:52;12.30;86.20
4433;DHT22;2229;48.708;9.706;2023-05-29T04:27:19;12.40;86.20
4433;DHT22;2229;48.708;9.706;2023-05-29T04:29:47;12.40;86.10
4433;DHT22;2229;48.708;9.706;2023-05-29T04:32:14;12.50;86.20
4433;DHT22;2229;48.708;9.706;2023-05-29T04:34:42;12.50;86.30
4433;DHT22;2229;48.708;9.706;2023-05-29T04:37:12;12.60;86.30
4433;DHT22;2229;48.708;9.706;2023-05-29T04:39:40;12.60;86.40
4433;DHT22;2229;48.708;9.706;2023-05-29T04:42:08;12.70;86.40
4433;DHT22;2229;48.708;9.706;2023-05-29T04:44:36;12.80;86.40
4433;DHT22;2229;48.708;9.706;2023-05-29T04:47:05;12.90;86.50
4433;DHT22;2229;48.708;9.706;2023-05-29T04:49:33;13.00;86.60
4433;DHT22;2229;48.708;9.706;2023-05-29T04:52:02;13.10;86.70
4433;DHT22;2229;48.708;9.706;2023-05-29T04:54:31;13.20;86.60
4433;DHT22;2229;48.708;9.706;2023-05-29T04:57:00;13.40;86.80
4433;DHT22;2229;48.708;9.706;2023-05-29T04:59:31;13.50;86.80
4433;DHT22;2229;48.708;9.706;2023-05-29T05:02:00;13.60;86.80
4433;DHT22;2229;48.708;9.706;2023-05-29T05:04:27;13.70;86.80
4433;DHT22;2229;48.708;9.706;2023-05-29T05:06:54;13.80;86.80
4433;DHT22;2229;48.708;9.706;2023-05-29T05:09:23;13.90;86.90
4433;DHT22;2229;48.708;9.706;2023-05-29T05:11:52;14.00;87.00
4433;DHT22;2229;48.708;9.706;2023-05-29T05:14:19;14.10;87.10
4433;DHT22;2229;48.708;9.706;2023-05-29T05:16:47;14.20;87.20
4433;DHT22;2229;48.708;9.706;2023-05-29T05:19:14;14.30;87.30
4433;DHT22;2229;48.708;9.706;2023-05-29T05:21:43;14.40;87.30
4433;DHT22;2229;48.708;9.706;2023-05-29T05:24:11;14.50;87.50
4433;DHT22;2229;48.708;9.706;2023-05-29T05:26:41;14.70;87.60
4433;DHT22;2229;48.708;9.706;2023-05-29T05:29:08;14.70;87.40
4433;DHT22;2229;48.708;9.706;2023-05-29T05:31:39;14.80;87.20
4433;DHT22;2229;48.708;9.706;2023-05-29T05:34:06;14.90;87.30
4433;DHT22;2229;48.708;9.706;2023-05-29T05:36:33;15.00;87.40
4433;DHT22;2229;48.708;9.706;2023-05-29T05:39:07;15.20;87.60
4433;DHT22;2229;48.708;9.706;2023-05-29T05:41:35;15.30;87.60
4433;DHT22;2229;48.708;9.706;2023-05-29T05:44:04;15.40;87.60
4433;DHT22;2229;48.708;9.706;2023-05-29T05:46:41;15.50;87.70
4433;DHT22;2229;48.708;9.706;2023-05-29T05:49:08;15.70;87.40
4433;DHT22;2229;48.708;9.706;2023-05-29T05:51:35;15.70;87.00
4433;DHT22;2229;48.708;9.706;2023-05-29T05:54:03;15.90;86.90
4433;DHT22;2229;48.708;9.706;2023-05-29T05:56:31;16.00;86.70
4433;DHT22;2229;48.708;9.706;2023-05-29T05:58:59;16.10;86.50
4433;DHT22;2229;48.708;9.706;2023-05-29T06:01:28;16.20;86.10
4433;DHT22;2229;48.708;9.706;2023-05-29T06:03:55;16.30;85.80
4433;DHT22;2229;48.708;9.706;2023-05-29T06:06:23;16.40;86.20
4433;DHT22;2229;48.708;9.706;2023-05-29T06:08:51;16.60;84.00
4433;DHT22;2229;48.708;9.706;2023-05-29T06:11:18;16.70;83.20
4433;DHT22;2229;48.708;9.706;2023-05-29T06:13:47;16.80;83.50
4433;DHT22;2229;48.708;9.706;2023-05-29T06:16:22;17.00;81.30
4433;DHT22;2229;48.708;9.706;2023-05-29T06:18:51;17.10;80.00
4433;DHT22;2229;48.708;9.706;2023-05-29T06:21:18;17.30;79.60
4433;DHT22;2229;48.708;9.706;2023-05-29T06:23:52;17.40;78.00
4433;DHT22;2229;48.708;9.706;2023-05-29T06:26:21;17.60;77.70
4433;DHT22;2229;48.708;9.706;2023-05-29T06:28:49;17.70;77.00
4433;DHT22;2229;48.708;9.706;2023-05-29T06:31:17;17.90;76.80
4433;DHT22;2229;48.708;9.706;2023-05-29T06:33:44;18.00;76.40
4433;DHT22;2229;48.708;9.706;2023-05-29T06:36:13;18.10;76.30
4433;DHT22;2229;48.708;9.706;2023-05-29T06:38:46;18.30;75.40
4433;DHT22;2229;48.708;9.706;2023-05-29T06:41:13;18.40;74.60
4433;DHT22;2229;48.708;9.706;2023-05-29T06:43:40;18.50;75.00
4433;DHT22;2229;48.708;9.706;2023-05-29T06:46:08;18.60;73.60
4433;DHT22;2229;48.708;9.706;2023-05-29T06:48:38;18.80;72.60
4433;DHT22;2229;48.708;9.706;2023-05-29T06:51:06;18.90;72.10
4433;DHT22;2229;48.708;9.706;2023-05-29T06:53:42;19.00;72.40
4433;DHT22;2229;48.708;9.706;2023-05-29T06:56:12;19.10;72.20
4433;DHT22;2229;48.708;9.706;2023-05-29T06:58:39;19.30;72.30
4433;DHT22;2229;48.708;9.706;2023-05-29T07:01:07;19.40;71.40
4433;DHT22;2229;48.708;9.706;2023-05-29T07:03:53;19.50;71.20
4433;DHT22;2229;48.708;9.706;2023-05-29T07:06:21;19.70;70.30
4433;DHT22;2229;48.708;9.706;2023-05-29T07:08:49;19.80;69.70
4433;DHT22;2229;48.708;9.706;2023-05-29T07:11:17;20.00;69.60
4433;DHT22;2229;48.708;9.706;2023-05-29T07:13:44;20.10;68.00
4433;DHT22;2229;48.708;9.706;2023-05-29T07:16:13;20.30;68.30
4433;DHT22;2229;48.708;9.706;2023-05-29T07:18:42;20.50;67.90
4433;DHT22;2229;48.708;9.706;2023-05-29T07:21:10;20.60;67.00
4433;DHT22;2229;48.708;9.706;2023-05-29T07:23:39;20.80;66.80
4433;DHT22;2229;48.708;9.706;2023-05-29T07:26:08;20.90;65.20
4433;DHT22;2229;48.708;9.706;2023-05-29T07:28:35;21.00;64.50
4433;DHT22;2229;48.708;9.706;2023-05-29T07:31:02;21.10;65.00
4433;DHT22;2229;48.708;9.706;2023-05-29T07:33:29;21.30;64.50
4433;DHT22;2229;48.708;9.706;2023-05-29T07:35:57;21.30;64.20
4433;DHT22;2229;48.708;9.706;2023-05-29T07:38:25;21.50;63.40
4433;DHT22;2229;48.708;9.706;2023-05-29T07:40:52;21.60;63.60
4433;DHT22;2229;48.708;9.706;2023-05-29T07:43:31;21.80;65.10
4433;DHT22;2229;48.708;9.706;2023-05-29T07:46:03;22.10;66.30
4433;DHT22;2229;48.708;9.706;2023-05-29T07:48:30;22.40;67.10
4433;DHT22;2229;48.708;9.706;2023-05-29T07:50:59;22.70;66.80
4433;DHT22;2229;48.708;9.706;2023-05-29T07:53:29;22.90;67.00
4433;DHT22;2229;48.708;9.706;2023-05-29T07:55:57;23.20;66.90
4433;DHT22;2229;48.708;9.706;2023-05-29T07:58:25;23.40;66.70
4433;DHT22;2229;48.708;9.706;2023-05-29T08:00:55;23.60;66.50
4433;DHT22;2229;48.708;9.706;2023-05-29T08:03:22;23.80;67.00
4433;DHT22;2229;48.708;9.706;2023-05-29T08:06:08;24.00;66.40
4433;DHT22;2229;48.708;9.706;2023-05-29T08:08:36;24.30;65.50
4433;DHT22;2229;48.708;9.706;2023-05-29T08:11:03;24.50;65.50
4433;DHT22;2229;48.708;9.706;2023-05-29T08:13:31;24.70;65.80
4433;DHT22;2229;48.708;9.706;2023-05-29T08:16:01;24.90;65.10
4433;DHT22;2229;48.708;9.706;2023-05-29T08:18:31;25.10;65.00
4433;DHT22;2229;48.708;9.706;2023-05-29T08:20:58;25.30;63.60
4433;DHT22;2229;48.708;9.706;2023-05-29T08:23:26;25.40;63.00
4433;DHT22;2229;48.708;9.706;2023-05-29T08:25:54;25.60;62.70
4433;DHT22;2229;48.708;9.706;2023-05-29T08:28:21;25.80;62.90
4433;DHT22;2229;48.708;9.706;2023-05-29T08:30:48;26.00;62.60
4433;DHT22;2229;48.708;9.706;2023-05-29T08:33:17;26.20;61.20
4433;DHT22;2229;48.708;9.706;2023-05-29T08:35:45;26.40;60.80
4433;DHT22;2229;48.708;9.706;2023-05-29T08:38:12;26.60;60.00
4433;DHT22;2229;48.708;9.706;2023-05-29T08:40:39;26.70;59.40
4433;DHT22;2229;48.708;9.706;2023-05-29T08:43:10;26.80;58.80
4433;DHT22;2229;48.708;9.706;2023-05-29T08:45:42;26.90;58.70
4433;DHT22;2229;48.708;9.706;2023-05-29T08:48:11;27.10;58.50
4433;DHT22;2229;48.708;9.706;2023-05-29T08:50:44;27.20;58.00
4433;DHT22;2229;48.708;9.706;2023-05-29T08:53:12;27.40;57.60
4433;DHT22;2229;48.708;9.706;2023-05-29T08:55:40;27.50;56.40
4433;DHT22;2229;48.708;9.706;2023-05-29T08:58:08;27.70;56.50
4433;DHT22;2229;48.708;9.706;2023-05-29T09:00:37;27.80;56.40
4433;DHT22;2229;48.708;9.706;2023-05-29T09:03:06;28.00;56.00
4433;DHT22;2229;48.708;9.706;2023-05-29T09:05:34;28.10;55.10
4433;DHT22;2229;48.708;9.706;2023-05-29T09:08:08;28.30;54.00
4433;DHT22;2229;48.708;9.706;2023-05-29T09:10:37;28.50;53.80
4433;DHT22;2229;48.708;9.706;2023-05-29T09:13:05;28.60;53.00
4433;DHT22;2229;48.708;9.706;2023-05-29T09:15:37;28.70;52.40
4433;DHT22;2229;48.708;9.706;2023-05-29T09:18:06;28.80;52.50
4433;DHT22;2229;48.708;9.706;2023-05-29T09:20:34;28.90;51.50
4433;DHT22;2229;48.708;9.706;2023-05-29T09:23:04;29.00;51.90
4433;DHT22;2229;48.708;9.706;2023-05-29T09:25:34;29.20;51.40
4433;DHT22;2229;48.708;9.706;2023-05-29T09:28:04;29.30;50.30
4433;DHT22;2229;48.708;9.706;2023-05-29T09:30:35;29.40;49.80
4433;DHT22;2229;48.708;9.706;2023-05-29T09:33:04;29.40;49.30
4433;DHT22;2229;48.708;9.706;2023-05-29T09:35:36;29.40;49.10
4433;DHT22;2229;48.708;9.706;2023-05-29T09:38:04;29.40;48.70
4433;DHT22;2229;48.708;9.706;2023-05-29T09:40:34;29.40;48.50
4433;DHT22;2229;48.708;9.706;2023-05-29T09:43:03;29.50;49.10
4433;DHT22;2229;48.708;9.706;2023-05-29T09:45:36;29.50;48.80
4433;DHT22;2229;48.708;9.706;2023-05-29T09:48:05;29.60;48.80
4433;DHT22;2229;48.708;9.706;2023-05-29T09:50:33;29.60;48.50
4433;DHT22;2229;48.708;9.706;2023-05-29T09:53:01;29.60;48.70
4433;DHT22;2229;48.708;9.706;2023-05-29T09:55:30;29.70;49.30
4433;DHT22;2229;48.708;9.706;2023-05-29T09:58:00;29.80;49.10
4433;DHT22;2229;48.708;9.706;2023-05-29T10:00:28;29.80;48.60
4433;DHT22;2229;48.708;9.706;2023-05-29T10:02:56;29.80;48.40
4433;DHT22;2229;48.708;9.706;2023-05-29T10:05:24;29.90;48.20
4433;DHT22;2229;48.708;9.706;2023-05-29T10:07:54;29.90;47.50
4433;DHT22;2229;48.708;9.706;2023-05-29T10:10:21;29.90;47.40
4433;DHT22;2229;48.708;9.706;2023-05-29T10:12:53;29.90;47.70
4433;DHT22;2229;48.708;9.706;2023-05-29T10:15:24;30.10;47.60
4433;DHT22;2229;48.708;9.706;2023-05-29T10:17:59;30.20;46.30
4433;DHT22;2229;48.708;9.706;2023-05-29T10:20:28;30.40;46.30
4433;DHT22;2229;48.708;9.706;2023-05-29T10:22:57;30.50;45.80
4433;DHT22;2229;48.708;9.706;2023-05-29T10:25:27;30.70;46.40
4433;DHT22;2229;48.708;9.706;2023-05-29T10:27:56;30.80;46.10
4433;DHT22;2229;48.708;9.706;2023-05-29T10:30:30;31.00;46.00
4433;DHT22;2229;48.708;9.706;2023-05-29T10:33:31;31.30;45.30
4433;DHT22;2229;48.708;9.706;2023-05-29T10:36:06;31.50;45.30
4433;DHT22;2229;48.708;9.706;2023-05-29T10:38:34;31.80;44.40
4433;DHT22;2229;48.708;9.706;2023-05-29T10:41:29;32.00;44.30
4433;DHT22;2229;48.708;9.706;2023-05-29T10:43:58;32.30;44.00
4433;DHT22;2229;48.708;9.706;2023-05-29T10:47:05;32.50;43.50
4433;DHT22;2229;48.708;9.706;2023-05-29T10:49:35;32.70;43.70
4433;DHT22;2229;48.708;9.706;2023-05-29T10:52:03;32.90;42.60
4433;DHT22;2229;48.708;9.706;2023-05-29T10:54:41;33.10;43.20
4433;DHT22;2229;48.708;9.706;2023-05-29T10:57:17;33.30;42.20
4433;DHT22;2229;48.708;9.706;2023-05-29T10:59:45;33.40;41.70
4433;DHT22;2229;48.708;9.706;2023-05-29T11:02:18;33.60;41.50
4433;DHT22;2229;48.708;9.706;2023-05-29T11:05:04;33.60;40.80
4433;DHT22;2229;48.708;9.706;2023-05-29T11:07:35;33.80;40.70
4433;DHT22;2229;48.708;9.706;2023-05-29T11:10:12;33.90;41.10
4433;DHT22;2229;48.708;9.706;2023-05-29T11:12:58;33.90;41.20
4433;DHT22;2229;48.708;9.706;2023-05-29T11:15:26;33.80;40.50
4433;DHT22;2229;48.708;9.706;2023-05-29T11:17:54;33.80;40.70
4433;DHT22;2229;48.708;9.706;2023-05-29T11:20:43;33.80;40.30
4433;DHT22;2229;48.708;9.706;2023-05-29T11:23:15;33.80;40.80
4433;DHT22;2229;48.708;9.706;2023-05-29T11:25:44;33.70;41.00
4433;DHT22;2229;48.708;9.706;2023-05-29T11:28:13;33.60;40.70
4433;DHT22;2229;48.708;9.706;2023-05-29T11:30:46;33.50;40.80
4433;DHT22;2229;48.708;9.706;2023-05-29T11:33:23;33.40;41.40
4433;DHT22;2229;48.708;9.706;2023-05-29T11:35:57;33.30;41.60
4433;DHT22;2229;48.708;9.706;2023-05-29T11:38:25;33.10;41.30
4433;DHT22;2229;48.708;9.706;2023-05-29T11:40:54;32.90;41.20
4433;DHT22;2229;48.708;9.706;2023-05-29T11:43:21;32.70;41.80
4433;DHT22;2229;48.708;9.706;2023-05-29T11:45:49;32.40;41.80
4433;DHT22;2229;48.708;9.706;2023-05-29T11:48:17;32.20;41.70
4433;DHT22;2229;48.708;9.706;2023-05-29T11:50:44;31.90;41.80
4433;DHT22;2229;48.708;9.706;2023-05-29T11:53:12;31.50;41.90
4433;DHT22;2229;48.708;9.706;2023-05-29T11:55:40;31.20;41.90
4433;DHT22;2229;48.708;9.706;2023-05-29T11:58:08;31.00;42.40
4433;DHT22;2229;48.708;9.706;2023-05-29T12:00:37;30.70;42.50
4433;DHT22;2229;48.708;9.706;2023-05-29T12:03:05;30.60;42.70
4433;DHT22;2229;48.708;9.706;2023-05-29T12:05:44;30.40;43.00
4433;DHT22;2229;48.708;9.706;2023-05-29T12:08:12;30.20;44.00
4433;DHT22;2229;48.708;9.706;2023-05-29T12:10:46;30.10;43.90
4433;DHT22;2229;48.708;9.706;2023-05-29T12:13:13;30.00;43.90
4433;DHT22;2229;48.708;9.706;2023-05-29T12:15:43;29.90;43.70
4433;DHT22;2229;48.708;9.706;2023-05-29T12:18:10;29.70;43.20
4433;DHT22;2229;48.708;9.706;2023-05-29T12:20:39;29.60;43.40
4433;DHT22;2229;48.708;9.706;2023-05-29T12:23:06;29.50;43.30
4433;DHT22;2229;48.708;9.706;2023-05-29T12:25:34;29.30;43.50
4433;DHT22;2229;48.708;9.706;2023-05-29T12:28:04;29.20;43.20
4433;DHT22;2229;48.708;9.706;2023-05-29T12:30:36;29.10;43.60
4433;DHT22;2229;48.708;9.706;2023-05-29T12:33:04;29.10;43.60
4433;DHT22;2229;48.708;9.706;2023-05-29T12:35:32;29.00;43.80
4433;DHT22;2229;48.708;9.706;2023-05-29T12:38:02;28.90;43.60
4433;DHT22;2229;48.708;9.706;2023-05-29T12:40:32;28.90;43.70
4433;DHT22;2229;48.708;9.706;2023-05-29T12:43:02;28.80;43.70
4433;DHT22;2229;48.708;9.706;2023-05-29T12:45:30;28.70;43.70
4433;DHT22;2229;48.708;9.706;2023-05-29T12:47:58;28.60;44.00
4433;DHT22;2229;48.708;9.706;2023-05-29T12:50:28;28.60;44.00
4433;DHT22;2229;48.708;9.706;2023-05-29T12:52:58;28.60;44.00
4433;DHT22;2229;48.708;9.706;2023-05-29T12:55:28;28.50;43.70
4433;DHT22;2229;48.708;9.706;2023-05-29T12:57:56;28.50;43.90
4433;DHT22;2229;48.708;9.706;2023-05-29T13:00:23;28.50;44.50
4433;DHT22;2229;48.708;9.706;2023-05-29T13:02:51;28.50;44.20
4433;DHT22;2229;48.708;9.706;2023-05-29T13:05:18;28.50;44.30
4433;DHT22;2229;48.708;9.706;2023-05-29T13:07:50;28.40;44.30
4433;DHT22;2229;48.708;9.706;2023-05-29T13:10:18;28.40;44.20
4433;DHT22;2229;48.708;9.706;2023-05-29T13:12:48;28.40;44.50
4433;DHT22;2229;48.708;9.706;2023-05-29T13:15:20;28.30;44.40
4433;DHT22;2229;48.708;9.706;2023-05-29T13:17:48;28.30;44.50
4433;DHT22;2229;48.708;9.706;2023-05-29T13:20:16;28.20;44.60
4433;DHT22;2229;48.708;9.706;2023-05-29T13:22:45;28.20;44.60
4433;DHT22;2229;48.708;9.706;2023-05-29T13:25:14;28.30;44.70
4433;DHT22;2229;48.708;9.706;2023-05-29T13:27:42;28.30;44.80
4433;DHT22;2229;48.708;9.706;2023-05-29T13:30:13;28.30;44.80
4433;DHT22;2229;48.708;9.706;2023-05-29T13:32:41;28.30;44.20
4433;DHT22;2229;48.708;9.706;2023-05-29T13:35:08;28.30;44.10
4433;DHT22;2229;48.708;9.706;2023-05-29T13:37:36;28.20;43.90
4433;DHT22;2229;48.708;9.706;2023-05-29T13:40:04;28.20;43.90
4433;DHT22;2229;48.708;9.706;2023-05-29T13:42:31;28.10;43.60
4433;DHT22;2229;48.708;9.706;2023-05-29T13:45:02;28.10;44.80
4433;DHT22;2229;48.708;9.706;2023-05-29T13:47:32;28.10;44.10
4433;DHT22;2229;48.708;9.706;2023-05-29T13:49:59;28.10;43.70
4433;DHT22;2229;48.708;9.706;2023-05-29T13:52:27;28.00;42.50
4433;DHT22;2229;48.708;9.706;2023-05-29T13:54:54;28.00;42.50
4433;DHT22;2229;48.708;9.706;2023-05-29T13:57:23;28.00;42.40
4433;DHT22;2229;48.708;9.706;2023-05-29T13:59:51;28.00;42.50
4433;DHT22;2229;48.708;9.706;2023-05-29T14:02:18;28.00;42.60
4433;DHT22;2229;48.708;9.706;2023-05-29T14:04:46;28.00;42.50
4433;DHT22;2229;48.708;9.706;2023-05-29T14:07:13;28.00;42.50
4433;DHT22;2229;48.708;9.706;2023-05-29T14:09:41;28.00;42.40
4433;DHT22;2229;48.708;9.706;2023-05-29T14:12:08;28.00;42.00
4433;DHT22;2229;48.708;9.706;2023-05-29T14:14:36;28.00;42.00
4433;DHT22;2229;48.708;9.706;2023-05-29T14:17:03;28.00;42.10
4433;DHT22;2229;48.708;9.706;2023-05-29T14:19:31;28.00;41.90
4433;DHT22;2229;48.708;9.706;2023-05-29T14:21:59;28.00;42.00
4433;DHT22;2229;48.708;9.706;2023-05-29T14:24:27;28.00;42.00
4433;DHT22;2229;48.708;9.706;2023-05-29T14:26:55;28.00;41.70
4433;DHT22;2229;48.708;9.706;2023-05-29T14:29:22;28.00;41.70
4433;DHT22;2229;48.708;9.706;2023-05-29T14:31:50;27.90;42.00
4433;DHT22;2229;48.708;9.706;2023-05-29T14:34:17;27.90;41.70
4433;DHT22;2229;48.708;9.706;2023-05-29T14:36:45;27.90;41.40
4433;DHT22;2229;48.708;9.706;2023-05-29T14:39:13;27.90;41.90
4433;DHT22;2229;48.708;9.706;2023-05-29T14:41:40;28.00;42.00
4433;DHT22;2229;48.708;9.706;2023-05-29T14:44:08;28.00;42.10
4433;DHT22;2229;48.708;9.706;2023-05-29T14:46:37;28.00;42.40
4433;DHT22;2229;48.708;9.706;2023-05-29T14:49:04;28.00;41.90
4433;DHT22;2229;48.708;9.706;2023-05-29T14:51:32;28.00;41.70
4433;DHT22;2229;48.708;9.706;2023-05-29T14:53:59;28.10;41.70
4433;DHT22;2229;48.708;9.706;2023-05-29T14:56:28;28.10;41.70
4433;DHT22;2229;48.708;9.706;2023-05-29T14:58:55;28.10;41.40
4433;DHT22;2229;48.708;9.706;2023-05-29T15:01:22;28.10;41.20
4433;DHT22;2229;48.708;9.706;2023-05-29T15:03:49;28.00;41.30
4433;DHT22;2229;48.708;9.706;2023-05-29T15:06:17;28.00;41.40
4433;DHT22;2229;48.708;9.706;2023-05-29T15:08:45;28.00;41.60
4433;DHT22;2229;48.708;9.706;2023-05-29T15:11:12;28.00;41.50
4433;DHT22;2229;48.708;9.706;2023-05-29T15:13:42;28.00;41.70
4433;DHT22;2229;48.708;9.706;2023-05-29T15:16:09;28.00;41.80
4433;DHT22;2229;48.708;9.706;2023-05-29T15:18:37;28.00;41.70
4433;DHT22;2229;48.708;9.706;2023-05-29T15:21:04;28.10;41.70
4433;DHT22;2229;48.708;9.706;2023-05-29T15:23:31;28.00;41.10
4433;DHT22;2229;48.708;9.706;2023-05-29T15:26:00;27.90;41.10
4433;DHT22;2229;48.708;9.706;2023-05-29T15:28:29;27.90;41.00
4433;DHT22;2229;48.708;9.706;2023-05-29T15:30:57;27.80;41.20
4433;DHT22;2229;48.708;9.706;2023-05-29T15:33:24;27.80;41.30
4433;DHT22;2229;48.708;9.706;2023-05-29T15:35:52;27.80;41.50
4433;DHT22;2229;48.708;9.706;2023-05-29T15:38:19;27.80;41.70
4433;DHT22;2229;48.708;9.706;2023-05-29T15:40:46;27.80;41.90
4433;DHT22;2229;48.708;9.706;2023-05-29T15:43:13;27.80;41.80
4433;DHT22;2229;48.708;9.706;2023-05-29T15:45:41;27.80;42.10
4433;DHT22;2229;48.708;9.706;2023-05-29T15:48:10;27.80;42.00
4433;DHT22;2229;48.708;9.706;2023-05-29T15:50:38;27.80;41.80
4433;DHT22;2229;48.708;9.706;2023-05-29T15:53:05;27.80;41.60
4433;DHT22;2229;48.708;9.706;2023-05-29T15:55:32;27.70;41.70
4433;DHT22;2229;48.708;9.706;2023-05-29T15:57:59;27.70;42.40
4433;DHT22;2229;48.708;9.706;2023-05-29T16:00:26;27.70;42.30
4433;DHT22;2229;48.708;9.706;2023-05-29T16:02:54;27.70;42.50
4433;DHT22;2229;48.708;9.706;2023-05-29T16:05:22;27.60;42.30
4433;DHT22;2229;48.708;9.706;2023-05-29T16:07:49;27.60;42.00
4433;DHT22;2229;48.708;9.706;2023-05-29T16:10:17;27.50;41.70
4433;DHT22;2229;48.708;9.706;2023-05-29T16:12:44;27.50;41.70
4433;DHT22;2229;48.708;9.706;2023-05-29T16:15:14;27.50;41.90